createdAt,value
2022-12-05T00:00:49.107Z,67.73
2022-12-05T00:01:50.637Z,67.94
2022-12-05T00:02:52.206Z,68.04
2022-12-05T00:03:54.482Z,67.82
2022-12-05T00:04:55.956Z,68.03
2022-12-05T00:05:57.482Z,68.33
2022-12-05T00:06:59.017Z,67.94
2022-12-05T00:08:00.641Z,67.90
2022-12-05T00:09:02.538Z,68.32
2022-12-05T00:10:05.110Z,68.57
2022-12-05T00:11:33.366Z,67.74
2022-12-05T00:12:35.112Z,68.49
2022-12-05T00:13:36.963Z,68.29
2022-12-05T00:14:38.821Z,68.42
2022-12-05T00:15:40.819Z,68.13
2022-12-05T00:16:43.092Z,67.85
2022-12-05T00:17:45.006Z,68.27
2022-12-05T00:18:47.008Z,67.94
2022-12-05T00:19:53.575Z,68.31
2022-12-05T00:20:58.330Z,68.20
2022-12-05T00:22:00.288Z,67.95
2022-12-05T00:23:02.074Z,68.56
2022-12-05T00:24:04.228Z,68.52
2022-12-05T00:25:06.256Z,68.38
2022-12-05T00:26:07.721Z,68.41
2022-12-05T00:27:09.230Z,68.81
2022-12-05T00:28:11.041Z,68.04
2022-12-05T00:29:12.517Z,68.39
2022-12-05T00:30:14.006Z,67.99
2022-12-05T00:31:16.720Z,68.05
2022-12-05T00:32:18.465Z,68.30
2022-12-05T00:33:19.968Z,68.00
2022-12-05T00:34:21.475Z,68.04
2022-12-05T00:35:22.953Z,68.02
2022-12-05T00:36:25.550Z,68.45
2022-12-05T00:37:26.992Z,68.27
2022-12-05T00:38:28.470Z,68.32
2022-12-05T00:39:30.189Z,68.00
2022-12-05T00:40:31.654Z,67.99
2022-12-05T00:41:33.147Z,67.79
2022-12-05T00:42:34.718Z,67.88
2022-12-05T00:43:36.307Z,67.90
2022-12-05T00:44:37.825Z,68.20
2022-12-05T00:45:39.463Z,68.26
2022-12-05T00:46:41.074Z,68.07
2022-12-05T00:47:42.546Z,67.82
2022-12-05T00:48:44.052Z,68.12
2022-12-05T00:49:45.536Z,68.37
2022-12-05T00:50:47.009Z,68.03
2022-12-05T00:51:48.533Z,68.11
2022-12-05T00:52:50.034Z,68.28
2022-12-05T00:53:51.505Z,68.01
2022-12-05T00:54:53.049Z,68.19
2022-12-05T00:55:54.480Z,68.33
2022-12-05T00:56:58.532Z,68.05
2022-12-05T00:58:00.024Z,68.05
2022-12-05T00:59:01.792Z,68.15
2022-12-05T01:00:04.048Z,68.37
2022-12-05T01:01:09.381Z,68.52
2022-12-05T01:02:10.956Z,68.20
2022-12-05T01:03:12.438Z,68.18
2022-12-05T01:04:15.092Z,68.45
2022-12-05T01:05:16.583Z,68.41
2022-12-05T01:06:18.177Z,68.51
2022-12-05T01:07:19.722Z,68.66
2022-12-05T01:08:21.171Z,67.85
2022-12-05T01:09:22.738Z,67.91
2022-12-05T01:10:24.217Z,68.12
2022-12-05T01:11:25.949Z,68.11
2022-12-05T01:12:28.190Z,67.85
2022-12-05T01:13:29.812Z,68.55
2022-12-05T01:14:31.362Z,68.25
2022-12-05T01:15:36.258Z,68.32
2022-12-05T01:16:38.346Z,68.37
2022-12-05T01:17:39.846Z,68.65
2022-12-05T01:18:41.388Z,68.76
2022-12-05T01:19:42.907Z,68.61
2022-12-05T01:20:44.397Z,68.32
2022-12-05T01:21:46.971Z,68.61
2022-12-05T01:22:48.446Z,68.50
2022-12-05T01:23:49.902Z,68.41
2022-12-05T01:24:51.441Z,68.03
2022-12-05T01:25:53.320Z,68.52
2022-12-05T01:26:54.891Z,68.41
2022-12-05T01:27:56.395Z,68.05
2022-12-05T01:28:57.949Z,67.94
2022-12-05T01:29:59.747Z,68.31
2022-12-05T01:31:04.243Z,68.10
2022-12-05T01:32:05.988Z,68.27
2022-12-05T01:33:07.578Z,68.18
2022-12-05T01:34:10.488Z,68.18
2022-12-05T01:35:12.050Z,68.08
2022-12-05T01:36:13.481Z,68.05
2022-12-05T01:37:15.013Z,68.27
2022-12-05T01:38:16.448Z,68.20
2022-12-05T01:39:17.971Z,68.18
2022-12-05T01:40:19.544Z,68.26
2022-12-05T01:41:22.020Z,68.30
2022-12-05T01:42:26.298Z,67.87
2022-12-05T01:43:28.062Z,67.98
2022-12-05T01:44:29.549Z,67.89
2022-12-05T01:45:37.996Z,67.83
2022-12-05T01:46:40.527Z,68.25
2022-12-05T01:47:41.965Z,68.03
2022-12-05T01:48:43.524Z,68.13
2022-12-05T01:49:45.017Z,67.95
2022-12-05T01:50:46.731Z,68.54
2022-12-05T01:51:50.397Z,68.10
2022-12-05T01:52:51.889Z,68.10
2022-12-05T01:53:53.418Z,68.25
2022-12-05T01:54:55.888Z,67.96
2022-12-05T01:55:57.365Z,67.92
2022-12-05T01:57:00.231Z,68.14
2022-12-05T01:58:05.268Z,68.19
2022-12-05T01:59:07.210Z,68.66
2022-12-05T02:00:10.350Z,68.36
2022-12-05T02:01:14.701Z,68.37
2022-12-05T02:02:16.274Z,68.08
2022-12-05T02:03:18.431Z,68.06
2022-12-05T02:04:19.989Z,68.19
2022-12-05T02:05:22.430Z,68.27
2022-12-05T02:06:24.359Z,68.27
2022-12-05T02:07:25.814Z,68.58
2022-12-05T02:08:27.776Z,68.33
2022-12-05T02:09:29.289Z,68.65
2022-12-05T02:10:31.605Z,67.94
2022-12-05T02:11:33.343Z,67.70
2022-12-05T02:12:34.858Z,68.02
2022-12-05T02:13:39.311Z,68.37
2022-12-05T02:14:46.017Z,68.28
2022-12-05T02:16:13.783Z,67.99
2022-12-05T02:17:23.982Z,68.12
2022-12-05T02:18:28.683Z,67.88
2022-12-05T02:19:30.298Z,68.27
2022-12-05T02:20:34.874Z,67.92
2022-12-05T02:21:39.269Z,67.86
2022-12-05T02:22:46.982Z,68.34
2022-12-05T02:23:52.908Z,68.39
2022-12-05T02:25:14.783Z,67.90
2022-12-05T02:26:34.852Z,68.13
2022-12-05T02:27:36.313Z,67.96
2022-12-05T02:28:56.615Z,67.70
2022-12-05T02:30:04.305Z,68.05
2022-12-05T02:31:10.850Z,68.21
2022-12-05T02:32:18.160Z,68.02
2022-12-05T02:33:22.295Z,67.92
2022-12-05T02:34:44.003Z,67.84
2022-12-05T02:35:55.917Z,67.78
2022-12-05T02:37:17.714Z,68.14
2022-12-05T02:38:21.958Z,67.46
2022-12-05T02:39:26.351Z,67.35
2022-12-05T02:40:31.726Z,68.14
2022-12-05T02:41:35.971Z,68.21
2022-12-05T02:42:49.462Z,67.89
2022-12-05T02:43:50.890Z,67.88
2022-12-05T02:44:53.992Z,67.84
2022-12-05T02:45:56.799Z,67.88
2022-12-05T02:46:58.408Z,67.76
2022-12-05T02:48:00.065Z,67.81
2022-12-05T02:49:02.833Z,68.24
2022-12-05T02:50:04.647Z,68.26
2022-12-05T02:51:06.368Z,67.93
2022-12-05T02:52:08.755Z,68.27
2022-12-05T02:53:12.043Z,68.21
2022-12-05T02:54:14.518Z,68.63
2022-12-05T02:55:16.201Z,68.06
2022-12-05T02:56:17.689Z,68.03
2022-12-05T02:57:19.155Z,68.40
2022-12-05T02:58:22.124Z,68.26
2022-12-05T02:59:23.940Z,68.53
2022-12-05T03:00:25.620Z,68.30
2022-12-05T03:01:28.525Z,68.34
2022-12-05T03:02:31.494Z,68.57
2022-12-05T03:03:33.020Z,68.15
2022-12-05T03:04:34.763Z,68.25
2022-12-05T03:05:41.330Z,67.92
2022-12-05T03:06:47.049Z,68.37
2022-12-05T03:07:49.021Z,68.21
2022-12-05T03:09:01.033Z,68.50
2022-12-05T03:10:04.033Z,68.08
2022-12-05T03:11:05.655Z,68.12
2022-12-05T03:12:11.811Z,67.79
2022-12-05T03:13:18.154Z,68.06
2022-12-05T03:14:21.732Z,67.73
2022-12-05T03:15:24.908Z,68.12
2022-12-05T03:16:38.660Z,68.13
2022-12-05T03:17:42.157Z,67.43
2022-12-05T03:18:55.790Z,68.00
2022-12-05T03:19:58.969Z,67.85
2022-12-05T03:21:02.864Z,68.08
2022-12-05T03:22:07.631Z,67.64
2022-12-05T03:23:13.384Z,68.29
2022-12-05T03:24:15.166Z,67.58
2022-12-05T03:25:16.759Z,67.46
2022-12-05T03:26:18.379Z,68.18
2022-12-05T03:27:27.483Z,67.31
2022-12-05T03:28:31.616Z,67.83
2022-12-05T03:29:39.255Z,67.43
2022-12-05T03:30:40.800Z,67.63
2022-12-05T03:31:46.260Z,67.75
2022-12-05T03:33:03.938Z,67.57
2022-12-05T03:34:06.138Z,68.09
2022-12-05T03:35:26.321Z,68.02
2022-12-05T03:36:33.208Z,67.67
2022-12-05T03:37:34.634Z,67.93
2022-12-05T03:38:56.426Z,67.68
2022-12-05T03:40:04.720Z,67.97
2022-12-05T03:41:29.530Z,67.97
2022-12-05T03:42:31.746Z,67.79
2022-12-05T03:43:34.469Z,67.93
2022-12-05T03:44:38.131Z,68.09
2022-12-05T03:45:42.159Z,67.93
2022-12-05T03:46:44.550Z,67.84
2022-12-05T03:47:50.404Z,67.91
2022-12-05T03:49:00.885Z,68.22
2022-12-05T03:50:12.619Z,68.31
2022-12-05T03:51:14.446Z,68.30
2022-12-05T03:52:20.673Z,68.54
2022-12-05T03:53:29.923Z,68.41
2022-12-05T03:54:32.845Z,68.25
2022-12-05T03:55:35.443Z,68.09
2022-12-05T03:56:41.913Z,68.21
2022-12-05T03:57:50.505Z,68.46
2022-12-05T03:58:56.770Z,67.92
2022-12-05T03:59:58.488Z,68.18
2022-12-05T04:01:00.644Z,68.54
2022-12-05T04:02:03.717Z,68.63
2022-12-05T04:03:09.535Z,68.42
2022-12-05T04:04:12.656Z,68.71
2022-12-05T04:05:21.408Z,68.47
2022-12-05T04:06:23.205Z,68.63
2022-12-05T04:07:24.721Z,68.92
2022-12-05T04:08:27.420Z,68.55
2022-12-05T04:09:30.080Z,68.63
2022-12-05T04:10:32.670Z,68.29
2022-12-05T04:11:34.946Z,69.10
2022-12-05T04:12:36.445Z,68.73
2022-12-05T04:13:40.661Z,68.32
2022-12-05T04:14:43.449Z,68.64
2022-12-05T04:16:11.915Z,68.53
2022-12-05T04:17:18.317Z,68.91
2022-12-05T04:18:20.090Z,68.78
2022-12-05T04:19:26.240Z,69.60
2022-12-05T04:20:48.096Z,69.15
2022-12-05T04:21:50.528Z,69.46
2022-12-05T04:22:52.107Z,69.19
2022-12-05T04:24:13.518Z,69.17
2022-12-05T04:25:33.358Z,69.38
2022-12-05T04:26:34.850Z,69.34
2022-12-05T04:27:40.949Z,69.44
2022-12-05T04:28:56.954Z,69.10
2022-12-05T04:30:02.762Z,69.17
2022-12-05T04:31:04.315Z,68.79
2022-12-05T04:32:06.865Z,69.43
2022-12-05T04:33:10.186Z,69.22
2022-12-05T04:34:12.866Z,68.99
2022-12-05T04:35:18.866Z,69.28
2022-12-05T04:36:30.186Z,68.93
2022-12-05T04:37:31.720Z,69.18
2022-12-05T04:38:51.704Z,69.61
2022-12-05T04:40:01.590Z,68.99
2022-12-05T04:41:03.976Z,68.95
2022-12-05T04:42:06.496Z,68.96
2022-12-05T04:43:08.028Z,68.97
2022-12-05T04:44:10.508Z,69.33
2022-12-05T04:45:12.189Z,69.23
2022-12-05T04:46:13.920Z,69.38
2022-12-05T04:47:15.474Z,69.35
2022-12-05T04:48:16.974Z,69.13
2022-12-05T04:49:20.047Z,69.57
2022-12-05T04:50:21.575Z,69.24
2022-12-05T04:51:23.991Z,68.87
2022-12-05T04:52:25.529Z,69.46
2022-12-05T04:53:27.552Z,69.41
2022-12-05T04:54:32.685Z,69.43
2022-12-05T04:55:34.830Z,69.46
2022-12-05T04:56:36.628Z,69.18
2022-12-05T04:57:41.808Z,69.21
2022-12-05T04:58:43.271Z,69.22
2022-12-05T04:59:44.794Z,69.17
2022-12-05T05:00:46.321Z,69.00
2022-12-05T05:01:51.974Z,69.35
2022-12-05T05:02:59.306Z,68.61
2022-12-05T05:04:30.063Z,69.37
2022-12-05T05:05:31.547Z,69.29
2022-12-05T05:06:33.130Z,68.93
2022-12-05T05:07:42.393Z,69.09
2022-12-05T05:08:50.585Z,69.00
2022-12-05T05:09:52.066Z,69.23
2022-12-05T05:11:02.414Z,69.57
2022-12-05T05:12:03.993Z,68.94
2022-12-05T05:13:05.451Z,69.03
2022-12-05T05:14:06.999Z,69.05
2022-12-05T05:15:08.660Z,69.55
2022-12-05T05:16:18.314Z,70.08
2022-12-05T05:17:19.973Z,70.01
2022-12-05T05:18:21.458Z,70.06
2022-12-05T05:19:22.985Z,70.14
2022-12-05T05:20:24.489Z,69.70
2022-12-05T05:21:29.543Z,69.84
2022-12-05T05:22:31.033Z,69.95
2022-12-05T05:23:32.561Z,70.19
2022-12-05T05:24:34.034Z,69.99
2022-12-05T05:25:35.541Z,69.66
2022-12-05T05:26:38.181Z,69.83
2022-12-05T05:27:39.655Z,69.86
2022-12-05T05:28:41.212Z,69.79
2022-12-05T05:29:42.671Z,69.51
2022-12-05T05:30:44.168Z,69.57
2022-12-05T05:31:45.784Z,69.46
2022-12-05T05:32:47.367Z,69.85
2022-12-05T05:33:49.706Z,69.46
2022-12-05T05:34:51.245Z,69.77
2022-12-05T05:35:52.731Z,69.92
2022-12-05T05:36:54.244Z,69.41
2022-12-05T05:37:55.808Z,69.80
2022-12-05T05:38:58.003Z,70.04
2022-12-05T05:39:59.805Z,69.47
2022-12-05T05:41:01.735Z,69.53
2022-12-05T05:42:03.261Z,69.89
2022-12-05T05:43:04.693Z,69.69
2022-12-05T05:44:06.286Z,69.83
2022-12-05T05:45:08.065Z,69.42
2022-12-05T05:46:10.009Z,69.89
2022-12-05T05:47:11.617Z,70.15
2022-12-05T05:48:13.058Z,69.64
2022-12-05T05:49:14.521Z,69.42
2022-12-05T05:50:21.197Z,69.15
2022-12-05T05:51:25.694Z,69.24
2022-12-05T05:52:27.181Z,69.49
2022-12-05T05:53:28.709Z,69.80
2022-12-05T05:54:30.253Z,69.28
2022-12-05T05:55:31.707Z,69.33
2022-12-05T05:56:33.229Z,69.29
2022-12-05T05:57:35.105Z,69.12
2022-12-05T05:58:36.829Z,68.65
2022-12-05T05:59:38.370Z,68.95
2022-12-05T06:00:39.870Z,69.45
2022-12-05T06:01:41.337Z,68.57
2022-12-05T06:02:43.056Z,68.62
2022-12-05T06:03:44.799Z,68.61
2022-12-05T06:04:46.609Z,69.11
2022-12-05T06:05:56.313Z,69.34
2022-12-05T06:06:57.803Z,69.12
2022-12-05T06:07:59.414Z,69.09
2022-12-05T06:09:01.010Z,69.08
2022-12-05T06:10:02.688Z,69.09
2022-12-05T06:11:11.189Z,69.23
2022-12-05T06:12:12.689Z,69.57
2022-12-05T06:13:14.198Z,69.00
2022-12-05T06:14:15.815Z,69.37
2022-12-05T06:15:17.414Z,68.94
2022-12-05T06:16:18.970Z,69.15
2022-12-05T06:17:20.556Z,68.99
2022-12-05T06:18:22.027Z,69.06
2022-12-05T06:19:23.506Z,68.83
2022-12-05T06:20:25.069Z,69.06
2022-12-05T06:21:26.731Z,69.11
2022-12-05T06:22:28.233Z,69.06
2022-12-05T06:23:29.694Z,69.08
2022-12-05T06:24:31.248Z,68.61
2022-12-05T06:25:32.698Z,68.59
2022-12-05T06:26:34.164Z,68.96
2022-12-05T06:27:35.669Z,68.88
2022-12-05T06:28:39.389Z,68.48
2022-12-05T06:29:40.958Z,68.86
2022-12-05T06:30:42.467Z,68.80
2022-12-05T06:31:44.133Z,68.87
2022-12-05T06:32:45.688Z,69.07
2022-12-05T06:33:47.173Z,69.10
2022-12-05T06:34:48.641Z,69.27
2022-12-05T06:35:57.237Z,69.38
2022-12-05T06:36:59.767Z,69.48
2022-12-05T06:38:01.291Z,69.70
2022-12-05T06:39:02.886Z,69.99
2022-12-05T06:40:04.658Z,70.08
2022-12-05T06:41:06.636Z,70.38
2022-12-05T06:42:08.194Z,70.13
2022-12-05T06:43:09.959Z,70.11
2022-12-05T06:44:11.504Z,70.95
2022-12-05T06:45:13.101Z,71.11
2022-12-05T06:46:14.690Z,71.24
2022-12-05T06:47:16.254Z,70.74
2022-12-05T06:48:17.714Z,71.62
2022-12-05T06:49:19.181Z,71.02
2022-12-05T06:50:20.777Z,71.17
2022-12-05T06:51:22.377Z,71.27
2022-12-05T06:52:23.897Z,71.69
2022-12-05T06:53:25.440Z,71.72
2022-12-05T06:54:26.950Z,71.19
2022-12-05T06:55:28.472Z,70.99
2022-12-05T06:56:30.026Z,71.66
2022-12-05T06:57:31.520Z,71.00
2022-12-05T06:58:32.999Z,71.38
2022-12-05T06:59:34.509Z,71.64
2022-12-05T07:00:54.765Z,71.93
2022-12-05T07:01:56.358Z,71.58
2022-12-05T07:02:57.921Z,72.05
2022-12-05T07:03:59.481Z,72.00
2022-12-05T07:05:00.978Z,71.93
2022-12-05T07:06:02.864Z,71.66
2022-12-05T07:07:04.351Z,71.44
2022-12-05T07:08:05.970Z,71.64
2022-12-05T07:09:07.553Z,71.54
2022-12-05T07:10:09.075Z,71.74
2022-12-05T07:11:10.563Z,72.08
2022-12-05T07:12:12.603Z,71.66
2022-12-05T07:13:15.797Z,72.23
2022-12-05T07:14:38.829Z,71.59
2022-12-05T07:15:39.387Z,71.90
2022-12-05T07:16:40.943Z,72.16
2022-12-05T07:17:42.413Z,72.45
2022-12-05T07:18:43.886Z,72.24
2022-12-05T07:19:47.118Z,72.25
2022-12-05T07:21:12.485Z,72.75
2022-12-05T07:22:16.175Z,72.48
2022-12-05T07:23:17.847Z,72.77
2022-12-05T07:24:19.468Z,72.94
2022-12-05T07:25:22.523Z,72.95
2022-12-05T07:26:24.030Z,72.40
2022-12-05T07:27:28.008Z,72.61
2022-12-05T07:28:29.766Z,72.17
2022-12-05T07:29:31.384Z,72.56
2022-12-05T07:30:32.910Z,73.04
2022-12-05T07:31:34.434Z,73.18
2022-12-05T07:32:35.981Z,73.61
2022-12-05T07:33:37.530Z,72.96
2022-12-05T07:34:39.077Z,73.05
2022-12-05T07:35:40.794Z,73.42
2022-12-05T07:36:42.287Z,73.50
2022-12-05T07:37:43.831Z,73.47
2022-12-05T07:38:45.396Z,73.08
2022-12-05T07:39:46.852Z,73.11
2022-12-05T07:40:48.412Z,72.80
2022-12-05T07:41:50.002Z,72.76
2022-12-05T07:42:53.425Z,73.68
2022-12-05T07:43:55.381Z,73.33
2022-12-05T07:44:56.874Z,73.28
2022-12-05T07:46:01.591Z,73.26
2022-12-05T07:47:03.190Z,72.78
2022-12-05T07:48:04.853Z,73.23
2022-12-05T07:49:06.993Z,73.19
2022-12-05T07:50:08.682Z,73.18
2022-12-05T07:51:10.334Z,74.11
2022-12-05T07:52:11.857Z,74.16
2022-12-05T07:53:13.351Z,74.20
2022-12-05T07:54:14.789Z,74.03
2022-12-05T07:55:16.290Z,73.95
2022-12-05T07:56:18.243Z,73.67
2022-12-05T07:57:19.742Z,74.36
2022-12-05T07:58:21.230Z,74.26
2022-12-05T07:59:22.763Z,74.33
2022-12-05T08:00:24.313Z,73.86
2022-12-05T08:01:26.550Z,73.89
2022-12-05T08:02:28.388Z,73.55
2022-12-05T08:03:29.882Z,73.97
2022-12-05T08:04:31.342Z,73.81
2022-12-05T08:05:33.400Z,73.53
2022-12-05T08:06:34.886Z,73.48
2022-12-05T08:07:36.399Z,73.44
2022-12-05T08:08:38.041Z,73.44
2022-12-05T08:09:39.499Z,73.88
2022-12-05T08:10:41.065Z,74.11
2022-12-05T08:11:42.582Z,73.90
2022-12-05T08:12:44.082Z,74.00
2022-12-05T08:13:45.616Z,73.89
2022-12-05T08:14:47.144Z,74.13
2022-12-05T08:15:48.588Z,73.78
2022-12-05T08:16:50.173Z,73.87
2022-12-05T08:17:51.730Z,73.94
2022-12-05T08:18:56.776Z,74.15
2022-12-05T08:19:58.557Z,74.63
2022-12-05T08:21:03.692Z,74.26
2022-12-05T08:22:05.247Z,73.50
2022-12-05T08:23:06.742Z,74.19
2022-12-05T08:24:08.411Z,74.60
2022-12-05T08:25:10.133Z,74.35
2022-12-05T08:26:11.639Z,74.40
2022-12-05T08:27:13.115Z,74.26
2022-12-05T08:28:14.638Z,74.51
2022-12-05T08:29:16.351Z,74.43
2022-12-05T08:30:17.990Z,74.85
2022-12-05T08:31:19.873Z,74.33
2022-12-05T08:32:21.375Z,73.87
2022-12-05T08:33:22.819Z,74.78
2022-12-05T08:34:24.386Z,74.41
2022-12-05T08:35:26.253Z,74.31
2022-12-05T08:36:28.452Z,74.33
2022-12-05T08:37:30.014Z,73.80
2022-12-05T08:38:31.528Z,73.88
2022-12-05T08:39:38.108Z,74.42
2022-12-05T08:40:40.301Z,74.06
2022-12-05T08:41:44.851Z,73.62
2022-12-05T08:42:46.964Z,74.11
2022-12-05T08:43:48.796Z,74.13
2022-12-05T08:44:51.137Z,73.56
2022-12-05T08:45:52.868Z,73.57
2022-12-05T08:46:54.375Z,73.66
2022-12-05T08:47:55.960Z,73.55
2022-12-05T08:48:57.564Z,73.42
2022-12-05T08:49:59.447Z,73.33
2022-12-05T08:51:04.767Z,73.18
2022-12-05T08:52:06.219Z,72.78
2022-12-05T08:53:07.666Z,73.73
2022-12-05T08:54:09.198Z,73.32
2022-12-05T08:55:10.708Z,73.51
2022-12-05T08:56:12.222Z,73.03
2022-12-05T08:57:13.783Z,72.95
2022-12-05T08:58:15.310Z,73.29
2022-12-05T08:59:16.831Z,73.33
2022-12-05T09:00:20.101Z,73.38
2022-12-05T09:01:22.028Z,73.25
2022-12-05T09:02:23.631Z,72.88
2022-12-05T09:03:25.147Z,73.12
2022-12-05T09:04:27.006Z,73.54
2022-12-05T09:05:29.659Z,73.25
2022-12-05T09:06:31.346Z,72.98
2022-12-05T09:07:32.880Z,72.96
2022-12-05T09:08:34.433Z,73.12
2022-12-05T09:09:35.986Z,72.91
2022-12-05T09:10:37.926Z,73.11
2022-12-05T09:11:41.450Z,72.62
2022-12-05T09:12:42.986Z,72.78
2022-12-05T09:13:44.627Z,72.11
2022-12-05T09:14:49.285Z,72.36
2022-12-05T09:15:50.870Z,72.55
2022-12-05T09:16:52.437Z,72.76
2022-12-05T09:17:53.912Z,72.50
2022-12-05T09:18:55.417Z,72.68
2022-12-05T09:19:57.121Z,72.65
2022-12-05T09:20:58.603Z,73.15
2022-12-05T09:22:00.149Z,73.42
2022-12-05T09:23:01.596Z,73.99
2022-12-05T09:24:03.442Z,73.84
2022-12-05T09:25:05.147Z,74.29
2022-12-05T09:26:06.850Z,74.10
2022-12-05T09:27:08.347Z,74.10
2022-12-05T09:28:09.857Z,73.84
2022-12-05T09:29:16.124Z,74.13
2022-12-05T09:30:18.036Z,73.35
2022-12-05T09:31:20.454Z,73.66
2022-12-05T09:32:21.996Z,73.40
2022-12-05T09:33:23.611Z,74.11
2022-12-05T09:34:26.079Z,73.79
2022-12-05T09:35:27.633Z,73.84
2022-12-05T09:36:29.634Z,73.74
2022-12-05T09:37:39.290Z,73.88
2022-12-05T09:38:41.414Z,74.37
2022-12-05T09:39:43.381Z,73.88
2022-12-05T09:40:44.894Z,73.87
2022-12-05T09:42:04.746Z,73.65
2022-12-05T09:43:06.537Z,73.99
2022-12-05T09:44:09.444Z,73.59
2022-12-05T09:45:14.530Z,73.50
2022-12-05T09:46:18.547Z,73.66
2022-12-05T09:47:20.155Z,74.02
2022-12-05T09:48:21.658Z,74.71
2022-12-05T09:49:23.126Z,74.40
2022-12-05T09:50:32.342Z,74.34
2022-12-05T09:51:33.835Z,73.97
2022-12-05T09:52:37.777Z,74.05
2022-12-05T09:53:39.846Z,74.36
2022-12-05T09:54:41.307Z,74.36
2022-12-05T09:55:56.144Z,74.07
2022-12-05T09:56:58.774Z,74.26
2022-12-05T09:58:00.598Z,74.49
2022-12-05T09:59:02.112Z,74.58
2022-12-05T10:00:04.545Z,74.14
2022-12-05T10:01:24.711Z,74.33
2022-12-05T10:02:29.630Z,74.32
2022-12-05T10:03:34.401Z,74.13
2022-12-05T10:05:00.414Z,75.40
2022-12-05T10:06:16.024Z,75.00
2022-12-05T10:07:22.322Z,75.40
2022-12-05T10:08:25.721Z,74.66
2022-12-05T10:09:39.041Z,74.54
2022-12-05T10:10:46.750Z,74.96
2022-12-05T10:11:57.446Z,74.40
2022-12-05T10:13:06.602Z,74.61
2022-12-05T10:14:20.105Z,74.68
2022-12-05T10:15:29.499Z,74.94
2022-12-05T10:16:32.616Z,75.16
2022-12-05T10:17:38.044Z,74.94
2022-12-05T10:18:45.434Z,75.25
2022-12-05T10:19:47.544Z,75.07
2022-12-05T10:20:51.005Z,75.16
2022-12-05T10:21:56.665Z,75.17
2022-12-05T10:22:59.358Z,75.10
2022-12-05T10:24:01.882Z,75.14
2022-12-05T10:25:04.190Z,74.99
2022-12-05T10:26:06.312Z,74.83
2022-12-05T10:27:08.461Z,75.69
2022-12-05T10:28:11.747Z,75.09
2022-12-05T10:29:22.430Z,75.81
2022-12-05T10:30:24.418Z,75.97
2022-12-05T10:31:27.317Z,75.94
2022-12-05T10:32:30.414Z,76.18
2022-12-05T10:33:34.151Z,76.02
2022-12-05T10:34:38.887Z,75.99
2022-12-05T10:35:40.682Z,75.83
2022-12-05T10:36:50.545Z,76.41
2022-12-05T10:37:53.263Z,75.90
2022-12-05T10:38:56.755Z,76.10
2022-12-05T10:39:58.251Z,75.73
2022-12-05T10:41:00.643Z,75.27
2022-12-05T10:42:02.101Z,75.31
2022-12-05T10:43:04.494Z,75.26
2022-12-05T10:44:06.054Z,75.56
2022-12-05T10:45:08.694Z,75.67
2022-12-05T10:46:14.096Z,75.76
2022-12-05T10:47:18.542Z,75.48
2022-12-05T10:48:20.287Z,75.73
2022-12-05T10:49:21.731Z,75.44
2022-12-05T10:50:32.771Z,75.96
2022-12-05T10:51:37.754Z,76.12
2022-12-05T10:52:39.528Z,75.42
2022-12-05T10:53:42.090Z,75.41
2022-12-05T10:54:44.994Z,75.68
2022-12-05T10:56:06.398Z,75.42
2022-12-05T10:57:21.819Z,75.27
2022-12-05T10:58:27.222Z,75.80
2022-12-05T10:59:44.239Z,75.93
2022-12-05T11:00:48.204Z,75.61
2022-12-05T11:01:57.030Z,75.79
2022-12-05T11:02:58.820Z,75.54
2022-12-05T11:04:13.746Z,75.55
2022-12-05T11:05:15.580Z,76.00
2022-12-05T11:06:18.474Z,76.39
2022-12-05T11:07:24.123Z,76.46
2022-12-05T11:08:48.210Z,76.74
2022-12-05T11:09:48.290Z,76.47
2022-12-05T11:10:49.768Z,76.91
2022-12-05T11:12:00.441Z,76.24
2022-12-05T11:13:02.259Z,76.14
2022-12-05T11:14:23.945Z,75.81
2022-12-05T11:15:26.346Z,76.35
2022-12-05T11:16:35.854Z,76.19
2022-12-05T11:17:38.422Z,76.85
2022-12-05T11:18:41.936Z,76.50
2022-12-05T11:19:43.427Z,76.19
2022-12-05T11:20:44.941Z,76.26
2022-12-05T11:21:46.397Z,76.57
2022-12-05T11:22:51.571Z,76.11
2022-12-05T11:23:53.401Z,76.20
2022-12-05T11:24:55.079Z,76.26
2022-12-05T11:25:57.169Z,76.41
2022-12-05T11:26:59.494Z,76.54
2022-12-05T11:28:10.206Z,76.19
2022-12-05T11:29:30.849Z,76.87
2022-12-05T11:30:32.398Z,76.23
2022-12-05T11:31:33.910Z,76.37
2022-12-05T11:32:35.414Z,76.23
2022-12-05T11:33:36.981Z,76.01
2022-12-05T11:34:40.334Z,75.92
2022-12-05T11:35:41.844Z,76.37
2022-12-05T11:36:48.563Z,76.36
2022-12-05T11:37:49.994Z,76.54
2022-12-05T11:38:51.487Z,76.60
2022-12-05T11:39:53.086Z,76.67
2022-12-05T11:40:57.930Z,76.14
2022-12-05T11:41:59.422Z,76.37
2022-12-05T11:43:08.443Z,76.03
2022-12-05T11:44:09.919Z,76.40
2022-12-05T11:45:14.391Z,76.46
2022-12-05T11:46:22.245Z,76.73
2022-12-05T11:47:32.795Z,77.02
2022-12-05T11:48:34.671Z,76.53
2022-12-05T11:49:43.151Z,76.40
2022-12-05T11:50:52.841Z,76.33
2022-12-05T11:51:54.304Z,76.42
2022-12-05T11:52:58.576Z,75.97
2022-12-05T11:54:15.499Z,76.05
2022-12-05T11:55:20.596Z,76.28
2022-12-05T11:56:28.163Z,75.99
2022-12-05T11:57:29.642Z,76.10
2022-12-05T11:58:57.104Z,76.65
2022-12-05T12:00:17.491Z,76.37
2022-12-05T12:01:30.914Z,75.86
2022-12-05T12:02:32.735Z,76.07
2022-12-05T12:03:53.068Z,75.90
2022-12-05T12:04:58.219Z,75.59
2022-12-05T12:06:12.089Z,75.72
2022-12-05T12:07:33.912Z,75.84
2022-12-05T12:09:10.985Z,75.80
2022-12-05T12:10:24.579Z,76.48
2022-12-05T12:11:29.659Z,76.44
2022-12-05T12:12:34.236Z,76.31
2022-12-05T12:13:45.903Z,75.88
2022-12-05T12:14:53.423Z,75.91
2022-12-05T12:15:55.095Z,75.78
2022-12-05T12:16:56.574Z,75.90
2022-12-05T12:18:24.044Z,75.93
2022-12-05T12:19:28.334Z,76.00
2022-12-05T12:20:29.839Z,75.92
2022-12-05T12:21:36.970Z,75.92
2022-12-05T12:22:45.826Z,75.90
2022-12-05T12:23:50.281Z,75.88
2022-12-05T12:25:03.742Z,75.92
2022-12-05T12:26:20.732Z,75.83
2022-12-05T12:27:25.337Z,75.78
2022-12-05T12:28:27.130Z,75.30
2022-12-05T12:29:28.571Z,75.52
2022-12-05T12:30:43.319Z,75.42
2022-12-05T12:31:47.763Z,75.09
2022-12-05T12:32:58.810Z,75.38
2022-12-05T12:34:11.938Z,75.51
2022-12-05T12:35:25.554Z,75.50
2022-12-05T12:36:36.273Z,75.08
2022-12-05T12:37:37.786Z,75.28
2022-12-05T12:38:45.703Z,74.98
2022-12-05T12:39:56.674Z,75.28
2022-12-05T12:41:06.887Z,75.06
2022-12-05T12:42:19.784Z,74.83
2022-12-05T12:44:01.743Z,75.06
2022-12-05T12:45:15.289Z,75.11
2022-12-05T12:46:19.795Z,75.26
2022-12-05T12:47:21.356Z,75.05
2022-12-05T12:48:22.770Z,74.84
2022-12-05T12:49:24.268Z,75.11
2022-12-05T12:50:30.348Z,74.94
2022-12-05T12:51:31.974Z,75.00
2022-12-05T12:52:51.012Z,74.90
2022-12-05T12:53:52.703Z,74.30
2022-12-05T12:55:05.167Z,74.47
2022-12-05T12:56:06.941Z,74.78
2022-12-05T12:57:13.598Z,74.68
2022-12-05T12:58:31.779Z,74.76
2022-12-05T12:59:46.172Z,74.82
2022-12-05T13:01:05.966Z,75.04
2022-12-05T13:02:16.444Z,75.30
2022-12-05T13:03:51.351Z,75.45
2022-12-05T13:04:54.458Z,75.22
2022-12-05T13:05:55.907Z,75.28
2022-12-05T13:06:58.313Z,75.19
2022-12-05T13:08:03.016Z,74.91
2022-12-05T13:09:13.066Z,75.00
2022-12-05T13:10:18.146Z,74.45
2022-12-05T13:11:19.665Z,75.06
2022-12-05T13:12:30.829Z,74.99
2022-12-05T13:13:45.975Z,75.32
2022-12-05T13:14:49.694Z,74.75
2022-12-05T13:15:52.198Z,75.21
2022-12-05T13:16:54.407Z,74.71
2022-12-05T13:17:56.386Z,75.08
2022-12-05T13:18:57.845Z,74.48
2022-12-05T13:19:59.420Z,74.59
2022-12-05T13:21:01.894Z,74.82
2022-12-05T13:22:03.585Z,74.99
2022-12-05T13:23:08.258Z,74.47
2022-12-05T13:24:11.049Z,74.46
2022-12-05T13:25:15.514Z,74.88
2022-12-05T13:26:17.107Z,74.47
2022-12-05T13:27:19.199Z,74.70
2022-12-05T13:28:25.690Z,74.45
2022-12-05T13:29:34.603Z,75.04
2022-12-05T13:30:56.030Z,75.09
2022-12-05T13:31:57.626Z,75.43
2022-12-05T13:32:59.722Z,75.20
2022-12-05T13:34:01.373Z,75.01
2022-12-05T13:35:47.666Z,75.18
2022-12-05T13:37:07.554Z,74.96
2022-12-05T13:38:47.669Z,75.04
2022-12-05T13:40:11.097Z,75.18
2022-12-05T13:41:31.114Z,75.16
2022-12-05T13:42:36.408Z,75.10
2022-12-05T13:43:44.981Z,75.59
2022-12-05T13:44:58.897Z,74.92
2022-12-05T13:46:10.236Z,75.05
2022-12-05T13:47:21.055Z,75.27
2022-12-05T13:48:22.899Z,75.03
2022-12-05T13:49:32.535Z,75.02
2022-12-05T13:50:35.536Z,75.02
2022-12-05T13:51:37.631Z,75.39